sensor_id;sensor_type;location;lat;lon;timestamp;P1;durP1;ratioP1;P2;durP2;ratioP2
13607;SDS011;6875;50.852;5.672;2023-04-07T00:02:27;18.57;;;11.67;;
13607;SDS011;6875;50.852;5.672;2023-04-07T00:04:53;16.53;;;9.50;;
13607;SDS011;6875;50.852;5.672;2023-04-07T00:07:21;26.23;;;8.73;;
13607;SDS011;6875;50.852;5.672;2023-04-07T00:09:47;14.67;;;8.60;;
13607;SDS011;6875;50.852;5.672;2023-04-07T00:12:15;19.77;;;8.10;;
13607;SDS011;6875;50.852;5.672;2023-04-07T00:14:42;18.07;;;8.27;;
13607;SDS011;6875;50.852;5.672;2023-04-07T00:17:08;19.63;;;8.70;;
13607;SDS011;6875;50.852;5.672;2023-04-07T00:19:35;15.97;;;9.17;;
13607;SDS011;6875;50.852;5.672;2023-04-07T00:22:01;14.30;;;9.50;;
13607;SDS011;6875;50.852;5.672;2023-04-07T00:24:28;14.00;;;9.40;;
13607;SDS011;6875;50.852;5.672;2023-04-07T00:26:55;26.77;;;9.90;;
13607;SDS011;6875;50.852;5.672;2023-04-07T00:29:23;12.70;;;8.40;;
13607;SDS011;6875;50.852;5.672;2023-04-07T00:31:49;15.87;;;8.63;;
13607;SDS011;6875;50.852;5.672;2023-04-07T00:34:16;17.43;;;8.13;;
13607;SDS011;6875;50.852;5.672;2023-04-07T00:36:42;17.97;;;8.00;;
13607;SDS011;6875;50.852;5.672;2023-04-07T00:39:15;11.93;;;6.87;;
13607;SDS011;6875;50.852;5.672;2023-04-07T00:41:42;13.47;;;7.27;;
13607;SDS011;6875;50.852;5.672;2023-04-07T00:44:08;14.87;;;7.00;;
13607;SDS011;6875;50.852;5.672;2023-04-07T00:46:36;13.87;;;6.47;;
13607;SDS011;6875;50.852;5.672;2023-04-07T00:49:03;10.93;;;6.73;;
13607;SDS011;6875;50.852;5.672;2023-04-07T00:51:30;12.50;;;7.43;;
13607;SDS011;6875;50.852;5.672;2023-04-07T00:53:56;13.30;;;7.70;;
13607;SDS011;6875;50.852;5.672;2023-04-07T00:56:23;15.83;;;6.80;;
13607;SDS011;6875;50.852;5.672;2023-04-07T00:58:49;14.23;;;7.30;;
13607;SDS011;6875;50.852;5.672;2023-04-07T01:01:18;15.23;;;7.83;;
13607;SDS011;6875;50.852;5.672;2023-04-07T01:03:51;13.40;;;7.60;;
13607;SDS011;6875;50.852;5.672;2023-04-07T01:06:22;18.03;;;7.80;;
13607;SDS011;6875;50.852;5.672;2023-04-07T01:08:50;21.87;;;7.60;;
13607;SDS011;6875;50.852;5.672;2023-04-07T01:11:22;14.17;;;6.80;;
13607;SDS011;6875;50.852;5.672;2023-04-07T01:13:50;13.57;;;7.40;;
13607;SDS011;6875;50.852;5.672;2023-04-07T01:16:18;12.87;;;6.77;;
13607;SDS011;6875;50.852;5.672;2023-04-07T01:18:51;14.73;;;6.50;;
13607;SDS011;6875;50.852;5.672;2023-04-07T01:21:20;9.17;;;5.97;;
13607;SDS011;6875;50.852;5.672;2023-04-07T01:24:02;11.23;;;5.53;;
13607;SDS011;6875;50.852;5.672;2023-04-07T01:26:37;7.83;;;5.87;;
13607;SDS011;6875;50.852;5.672;2023-04-07T01:31:57;13.57;;;6.20;;
13607;SDS011;6875;50.852;5.672;2023-04-07T01:34:25;11.67;;;5.33;;
13607;SDS011;6875;50.852;5.672;2023-04-07T01:36:52;8.20;;;5.83;;
13607;SDS011;6875;50.852;5.672;2023-04-07T01:39:20;11.87;;;6.47;;
13607;SDS011;6875;50.852;5.672;2023-04-07T01:41:47;15.27;;;6.17;;
13607;SDS011;6875;50.852;5.672;2023-04-07T01:44:17;16.70;;;7.43;;
13607;SDS011;6875;50.852;5.672;2023-04-07T01:46:44;11.30;;;6.70;;
13607;SDS011;6875;50.852;5.672;2023-04-07T01:49:11;12.27;;;6.77;;
13607;SDS011;6875;50.852;5.672;2023-04-07T01:51:38;11.53;;;6.97;;
13607;SDS011;6875;50.852;5.672;2023-04-07T01:54:05;11.83;;;6.13;;
13607;SDS011;6875;50.852;5.672;2023-04-07T01:56:33;10.03;;;7.00;;
13607;SDS011;6875;50.852;5.672;2023-04-07T01:58:59;13.20;;;6.77;;
13607;SDS011;6875;50.852;5.672;2023-04-07T02:01:26;15.73;;;7.17;;
13607;SDS011;6875;50.852;5.672;2023-04-07T02:03:54;17.13;;;7.33;;
13607;SDS011;6875;50.852;5.672;2023-04-07T02:06:26;11.37;;;5.83;;
13607;SDS011;6875;50.852;5.672;2023-04-07T02:08:56;13.43;;;7.00;;
13607;SDS011;6875;50.852;5.672;2023-04-07T02:11:25;13.60;;;6.53;;
13607;SDS011;6875;50.852;5.672;2023-04-07T02:13:52;12.40;;;7.03;;
13607;SDS011;6875;50.852;5.672;2023-04-07T02:16:19;18.83;;;7.40;;
13607;SDS011;6875;50.852;5.672;2023-04-07T02:18:46;10.57;;;6.27;;
13607;SDS011;6875;50.852;5.672;2023-04-07T02:21:15;15.53;;;6.80;;
13607;SDS011;6875;50.852;5.672;2023-04-07T02:23:42;13.00;;;7.27;;
13607;SDS011;6875;50.852;5.672;2023-04-07T02:26:09;9.93;;;6.60;;
13607;SDS011;6875;50.852;5.672;2023-04-07T02:28:36;13.93;;;6.60;;
13607;SDS011;6875;50.852;5.672;2023-04-07T02:31:02;14.53;;;7.40;;
13607;SDS011;6875;50.852;5.672;2023-04-07T02:33:29;17.27;;;6.93;;
13607;SDS011;6875;50.852;5.672;2023-04-07T02:35:55;15.60;;;7.27;;
13607;SDS011;6875;50.852;5.672;2023-04-07T02:38:23;10.80;;;6.37;;
13607;SDS011;6875;50.852;5.672;2023-04-07T02:40:50;16.37;;;7.30;;
13607;SDS011;6875;50.852;5.672;2023-04-07T02:43:17;19.53;;;8.00;;
13607;SDS011;6875;50.852;5.672;2023-04-07T02:45:44;11.00;;;7.07;;
13607;SDS011;6875;50.852;5.672;2023-04-07T02:48:11;16.90;;;7.60;;
13607;SDS011;6875;50.852;5.672;2023-04-07T02:50:38;15.77;;;7.00;;
13607;SDS011;6875;50.852;5.672;2023-04-07T02:53:05;12.47;;;6.63;;
13607;SDS011;6875;50.852;5.672;2023-04-07T02:55:33;14.47;;;6.27;;
13607;SDS011;6875;50.852;5.672;2023-04-07T02:58:00;19.20;;;7.87;;
13607;SDS011;6875;50.852;5.672;2023-04-07T03:00:26;15.47;;;6.33;;
13607;SDS011;6875;50.852;5.672;2023-04-07T03:02:53;13.77;;;6.77;;
13607;SDS011;6875;50.852;5.672;2023-04-07T03:05:19;16.70;;;6.77;;
13607;SDS011;6875;50.852;5.672;2023-04-07T03:07:46;22.60;;;6.63;;
13607;SDS011;6875;50.852;5.672;2023-04-07T03:10:13;12.13;;;7.03;;
13607;SDS011;6875;50.852;5.672;2023-04-07T03:12:41;23.83;;;6.83;;
13607;SDS011;6875;50.852;5.672;2023-04-07T03:15:08;16.17;;;7.03;;
13607;SDS011;6875;50.852;5.672;2023-04-07T03:17:35;11.93;;;5.27;;
13607;SDS011;6875;50.852;5.672;2023-04-07T03:20:01;14.53;;;6.23;;
13607;SDS011;6875;50.852;5.672;2023-04-07T03:22:28;12.63;;;5.17;;
13607;SDS011;6875;50.852;5.672;2023-04-07T03:24:55;18.67;;;5.60;;
13607;SDS011;6875;50.852;5.672;2023-04-07T03:27:21;19.20;;;6.10;;
13607;SDS011;6875;50.852;5.672;2023-04-07T03:29:49;17.77;;;5.60;;
13607;SDS011;6875;50.852;5.672;2023-04-07T03:32:15;14.53;;;5.33;;
13607;SDS011;6875;50.852;5.672;2023-04-07T03:34:42;18.67;;;6.70;;
13607;SDS011;6875;50.852;5.672;2023-04-07T03:37:08;18.57;;;6.10;;
13607;SDS011;6875;50.852;5.672;2023-04-07T03:39:35;16.47;;;6.40;;
13607;SDS011;6875;50.852;5.672;2023-04-07T03:42:02;17.37;;;7.47;;
13607;SDS011;6875;50.852;5.672;2023-04-07T03:44:28;19.93;;;7.47;;
13607;SDS011;6875;50.852;5.672;2023-04-07T03:46:56;17.77;;;8.97;;
13607;SDS011;6875;50.852;5.672;2023-04-07T03:49:23;22.17;;;10.43;;
13607;SDS011;6875;50.852;5.672;2023-04-07T03:51:50;27.00;;;10.43;;
13607;SDS011;6875;50.852;5.672;2023-04-07T03:54:16;22.47;;;10.97;;
13607;SDS011;6875;50.852;5.672;2023-04-07T03:56:43;20.37;;;10.83;;
13607;SDS011;6875;50.852;5.672;2023-04-07T03:59:10;25.40;;;12.10;;
13607;SDS011;6875;50.852;5.672;2023-04-07T04:01:36;30.50;;;12.40;;
13607;SDS011;6875;50.852;5.672;2023-04-07T04:04:04;27.90;;;11.30;;
13607;SDS011;6875;50.852;5.672;2023-04-07T04:06:31;19.13;;;9.80;;
13607;SDS011;6875;50.852;5.672;2023-04-07T04:08:57;26.87;;;10.70;;
13607;SDS011;6875;50.852;5.672;2023-04-07T04:11:24;22.17;;;9.03;;
13607;SDS011;6875;50.852;5.672;2023-04-07T04:13:51;25.03;;;9.13;;
13607;SDS011;6875;50.852;5.672;2023-04-07T04:16:17;25.83;;;8.83;;
13607;SDS011;6875;50.852;5.672;2023-04-07T04:18:44;25.40;;;8.83;;
13607;SDS011;6875;50.852;5.672;2023-04-07T04:21:12;19.40;;;8.50;;
13607;SDS011;6875;50.852;5.672;2023-04-07T04:23:38;28.43;;;8.50;;
13607;SDS011;6875;50.852;5.672;2023-04-07T04:26:05;24.73;;;8.17;;
13607;SDS011;6875;50.852;5.672;2023-04-07T04:28:31;17.20;;;7.83;;
13607;SDS011;6875;50.852;5.672;2023-04-07T04:30:58;24.93;;;9.80;;
13607;SDS011;6875;50.852;5.672;2023-04-07T04:33:25;18.50;;;9.53;;
13607;SDS011;6875;50.852;5.672;2023-04-07T04:35:51;23.47;;;10.67;;
13607;SDS011;6875;50.852;5.672;2023-04-07T04:38:19;26.27;;;12.17;;
13607;SDS011;6875;50.852;5.672;2023-04-07T04:40:46;23.57;;;10.77;;
13607;SDS011;6875;50.852;5.672;2023-04-07T04:43:12;22.90;;;10.33;;
13607;SDS011;6875;50.852;5.672;2023-04-07T04:45:38;28.17;;;10.43;;
13607;SDS011;6875;50.852;5.672;2023-04-07T04:48:05;28.23;;;11.07;;
13607;SDS011;6875;50.852;5.672;2023-04-07T04:50:32;20.07;;;9.83;;
13607;SDS011;6875;50.852;5.672;2023-04-07T04:52:58;21.73;;;8.83;;
13607;SDS011;6875;50.852;5.672;2023-04-07T04:55:26;23.17;;;9.03;;
13607;SDS011;6875;50.852;5.672;2023-04-07T04:57:53;22.60;;;9.97;;
13607;SDS011;6875;50.852;5.672;2023-04-07T05:00:19;23.43;;;10.53;;
13607;SDS011;6875;50.852;5.672;2023-04-07T05:02:46;23.63;;;10.67;;
13607;SDS011;6875;50.852;5.672;2023-04-07T05:05:13;23.70;;;10.13;;
13607;SDS011;6875;50.852;5.672;2023-04-07T05:07:39;25.07;;;10.20;;
13607;SDS011;6875;50.852;5.672;2023-04-07T05:10:06;21.73;;;10.93;;
13607;SDS011;6875;50.852;5.672;2023-04-07T05:12:35;25.13;;;10.30;;
13607;SDS011;6875;50.852;5.672;2023-04-07T05:15:02;27.57;;;11.23;;
13607;SDS011;6875;50.852;5.672;2023-04-07T05:17:29;20.43;;;10.60;;
13607;SDS011;6875;50.852;5.672;2023-04-07T05:19:55;29.10;;;11.57;;
13607;SDS011;6875;50.852;5.672;2023-04-07T05:22:22;24.93;;;10.73;;
13607;SDS011;6875;50.852;5.672;2023-04-07T05:24:48;31.77;;;11.00;;
13607;SDS011;6875;50.852;5.672;2023-04-07T05:27:15;25.10;;;10.73;;
13607;SDS011;6875;50.852;5.672;2023-04-07T05:29:43;27.70;;;11.10;;
13607;SDS011;6875;50.852;5.672;2023-04-07T05:32:09;30.73;;;11.20;;
13607;SDS011;6875;50.852;5.672;2023-04-07T05:34:36;27.50;;;12.07;;
13607;SDS011;6875;50.852;5.672;2023-04-07T05:37:02;26.20;;;11.57;;
13607;SDS011;6875;50.852;5.672;2023-04-07T05:39:29;30.13;;;11.83;;
13607;SDS011;6875;50.852;5.672;2023-04-07T05:41:55;31.27;;;12.60;;
13607;SDS011;6875;50.852;5.672;2023-04-07T05:44:22;29.33;;;12.20;;
13607;SDS011;6875;50.852;5.672;2023-04-07T05:46:50;30.27;;;11.93;;
13607;SDS011;6875;50.852;5.672;2023-04-07T05:49:17;32.80;;;12.10;;
13607;SDS011;6875;50.852;5.672;2023-04-07T05:51:43;30.63;;;12.27;;
13607;SDS011;6875;50.852;5.672;2023-04-07T05:54:10;31.77;;;12.83;;
13607;SDS011;6875;50.852;5.672;2023-04-07T05:56:37;26.83;;;12.00;;
13607;SDS011;6875;50.852;5.672;2023-04-07T05:59:03;27.37;;;12.80;;
13607;SDS011;6875;50.852;5.672;2023-04-07T06:01:30;24.30;;;12.10;;
13607;SDS011;6875;50.852;5.672;2023-04-07T06:03:57;33.53;;;12.60;;
13607;SDS011;6875;50.852;5.672;2023-04-07T06:06:25;34.23;;;11.87;;
13607;SDS011;6875;50.852;5.672;2023-04-07T06:08:52;28.53;;;12.50;;
13607;SDS011;6875;50.852;5.672;2023-04-07T06:11:19;32.23;;;12.77;;
13607;SDS011;6875;50.852;5.672;2023-04-07T06:13:46;27.97;;;12.00;;
13607;SDS011;6875;50.852;5.672;2023-04-07T06:16:12;32.67;;;13.37;;
13607;SDS011;6875;50.852;5.672;2023-04-07T06:18:39;30.10;;;14.07;;
13607;SDS011;6875;50.852;5.672;2023-04-07T06:21:07;29.47;;;13.00;;
13607;SDS011;6875;50.852;5.672;2023-04-07T06:23:34;26.33;;;12.67;;
13607;SDS011;6875;50.852;5.672;2023-04-07T06:26:00;34.83;;;12.93;;
13607;SDS011;6875;50.852;5.672;2023-04-07T06:28:27;27.77;;;12.47;;
13607;SDS011;6875;50.852;5.672;2023-04-07T06:30:53;33.40;;;12.57;;
13607;SDS011;6875;50.852;5.672;2023-04-07T06:33:20;24.80;;;12.10;;
13607;SDS011;6875;50.852;5.672;2023-04-07T06:35:49;23.43;;;11.47;;
13607;SDS011;6875;50.852;5.672;2023-04-07T06:38:18;24.23;;;11.33;;
13607;SDS011;6875;50.852;5.672;2023-04-07T06:40:44;24.37;;;11.50;;
13607;SDS011;6875;50.852;5.672;2023-04-07T06:43:11;18.50;;;10.17;;
13607;SDS011;6875;50.852;5.672;2023-04-07T06:45:37;21.03;;;9.93;;
13607;SDS011;6875;50.852;5.672;2023-04-07T06:48:04;14.63;;;8.60;;
13607;SDS011;6875;50.852;5.672;2023-04-07T06:50:31;17.03;;;8.20;;
13607;SDS011;6875;50.852;5.672;2023-04-07T06:52:57;20.17;;;7.83;;
13607;SDS011;6875;50.852;5.672;2023-04-07T06:55:25;16.70;;;6.67;;
13607;SDS011;6875;50.852;5.672;2023-04-07T06:57:52;11.03;;;6.17;;
13607;SDS011;6875;50.852;5.672;2023-04-07T07:00:18;11.10;;;5.17;;
13607;SDS011;6875;50.852;5.672;2023-04-07T07:02:46;13.20;;;6.00;;
13607;SDS011;6875;50.852;5.672;2023-04-07T07:05:13;11.80;;;5.33;;
13607;SDS011;6875;50.852;5.672;2023-04-07T07:07:40;11.10;;;5.13;;
13607;SDS011;6875;50.852;5.672;2023-04-07T07:10:07;14.03;;;6.23;;
13607;SDS011;6875;50.852;5.672;2023-04-07T07:12:36;10.27;;;5.50;;
13607;SDS011;6875;50.852;5.672;2023-04-07T07:15:03;16.50;;;5.30;;
13607;SDS011;6875;50.852;5.672;2023-04-07T07:17:30;10.17;;;4.30;;
13607;SDS011;6875;50.852;5.672;2023-04-07T07:19:56;8.33;;;3.93;;
13607;SDS011;6875;50.852;5.672;2023-04-07T07:22:23;7.97;;;4.50;;
13607;SDS011;6875;50.852;5.672;2023-04-07T07:24:50;8.43;;;3.37;;
13607;SDS011;6875;50.852;5.672;2023-04-07T07:27:16;7.43;;;4.07;;
13607;SDS011;6875;50.852;5.672;2023-04-07T07:29:44;7.80;;;3.87;;
13607;SDS011;6875;50.852;5.672;2023-04-07T07:32:11;6.77;;;3.63;;
13607;SDS011;6875;50.852;5.672;2023-04-07T07:34:37;6.70;;;3.30;;
13607;SDS011;6875;50.852;5.672;2023-04-07T07:37:04;7.03;;;3.53;;
13607;SDS011;6875;50.852;5.672;2023-04-07T07:39:30;5.47;;;3.53;;
13607;SDS011;6875;50.852;5.672;2023-04-07T07:41:57;6.63;;;3.40;;
13607;SDS011;6875;50.852;5.672;2023-04-07T07:44:23;8.23;;;3.73;;
13607;SDS011;6875;50.852;5.672;2023-04-07T07:46:51;9.20;;;3.90;;
13607;SDS011;6875;50.852;5.672;2023-04-07T07:49:18;9.40;;;4.10;;
13607;SDS011;6875;50.852;5.672;2023-04-07T07:51:45;10.87;;;4.37;;
13607;SDS011;6875;50.852;5.672;2023-04-07T07:54:12;12.80;;;4.23;;
13607;SDS011;6875;50.852;5.672;2023-04-07T07:56:38;11.83;;;3.93;;
13607;SDS011;6875;50.852;5.672;2023-04-07T07:59:05;11.80;;;4.43;;
13607;SDS011;6875;50.852;5.672;2023-04-07T08:01:31;7.47;;;3.53;;
13607;SDS011;6875;50.852;5.672;2023-04-07T08:03:59;8.97;;;3.93;;
13607;SDS011;6875;50.852;5.672;2023-04-07T08:06:26;9.27;;;3.70;;
13607;SDS011;6875;50.852;5.672;2023-04-07T08:08:53;6.87;;;3.47;;
13607;SDS011;6875;50.852;5.672;2023-04-07T08:11:20;8.53;;;3.60;;
13607;SDS011;6875;50.852;5.672;2023-04-07T08:13:47;8.03;;;3.97;;
13607;SDS011;6875;50.852;5.672;2023-04-07T08:16:13;7.43;;;3.27;;
13607;SDS011;6875;50.852;5.672;2023-04-07T08:18:40;9.73;;;3.47;;
13607;SDS011;6875;50.852;5.672;2023-04-07T08:21:08;6.87;;;2.90;;
13607;SDS011;6875;50.852;5.672;2023-04-07T08:23:35;13.57;;;3.67;;
13607;SDS011;6875;50.852;5.672;2023-04-07T08:26:01;6.70;;;3.07;;
13607;SDS011;6875;50.852;5.672;2023-04-07T08:28:28;7.30;;;2.70;;
13607;SDS011;6875;50.852;5.672;2023-04-07T08:30:54;7.80;;;2.37;;
13607;SDS011;6875;50.852;5.672;2023-04-07T08:33:21;6.70;;;3.27;;
13607;SDS011;6875;50.852;5.672;2023-04-07T08:35:47;7.50;;;2.63;;
13607;SDS011;6875;50.852;5.672;2023-04-07T08:38:15;9.83;;;2.90;;
13607;SDS011;6875;50.852;5.672;2023-04-07T08:40:41;5.43;;;2.10;;
13607;SDS011;6875;50.852;5.672;2023-04-07T08:43:08;9.97;;;2.40;;
13607;SDS011;6875;50.852;5.672;2023-04-07T08:45:36;6.03;;;3.10;;
13607;SDS011;6875;50.852;5.672;2023-04-07T08:48:07;8.70;;;2.63;;
13607;SDS011;6875;50.852;5.672;2023-04-07T08:50:40;13.00;;;3.20;;
13607;SDS011;6875;50.852;5.672;2023-04-07T08:53:09;12.43;;;3.17;;
13607;SDS011;6875;50.852;5.672;2023-04-07T08:55:39;7.93;;;2.83;;
13607;SDS011;6875;50.852;5.672;2023-04-07T08:58:07;9.37;;;3.30;;
13607;SDS011;6875;50.852;5.672;2023-04-07T09:00:36;7.80;;;3.10;;
13607;SDS011;6875;50.852;5.672;2023-04-07T09:03:04;7.23;;;2.33;;
13607;SDS011;6875;50.852;5.672;2023-04-07T09:05:31;12.53;;;3.10;;
13607;SDS011;6875;50.852;5.672;2023-04-07T09:07:57;8.60;;;2.63;;
13607;SDS011;6875;50.852;5.672;2023-04-07T09:10:24;7.83;;;2.70;;
13607;SDS011;6875;50.852;5.672;2023-04-07T09:12:52;8.10;;;2.93;;
13607;SDS011;6875;50.852;5.672;2023-04-07T09:15:19;7.17;;;2.57;;
13607;SDS011;6875;50.852;5.672;2023-04-07T09:17:46;8.50;;;2.50;;
13607;SDS011;6875;50.852;5.672;2023-04-07T09:20:13;12.20;;;2.77;;
13607;SDS011;6875;50.852;5.672;2023-04-07T09:22:40;8.70;;;2.60;;
13607;SDS011;6875;50.852;5.672;2023-04-07T09:25:10;8.13;;;1.93;;
13607;SDS011;6875;50.852;5.672;2023-04-07T09:27:40;6.33;;;2.20;;
13607;SDS011;6875;50.852;5.672;2023-04-07T09:30:11;4.60;;;1.70;;
13607;SDS011;6875;50.852;5.672;2023-04-07T09:32:40;9.00;;;2.30;;
13607;SDS011;6875;50.852;5.672;2023-04-07T09:35:07;8.53;;;2.63;;
13607;SDS011;6875;50.852;5.672;2023-04-07T09:37:36;3.60;;;2.00;;
13607;SDS011;6875;50.852;5.672;2023-04-07T09:40:03;6.40;;;2.03;;
13607;SDS011;6875;50.852;5.672;2023-04-07T09:42:30;6.23;;;1.83;;
13607;SDS011;6875;50.852;5.672;2023-04-07T09:45:00;5.97;;;1.90;;
13607;SDS011;6875;50.852;5.672;2023-04-07T09:47:28;5.07;;;2.20;;
13607;SDS011;6875;50.852;5.672;2023-04-07T09:49:56;6.97;;;2.37;;
13607;SDS011;6875;50.852;5.672;2023-04-07T09:55:15;5.47;;;2.23;;
13607;SDS011;6875;50.852;5.672;2023-04-07T09:57:42;7.17;;;2.23;;
13607;SDS011;6875;50.852;5.672;2023-04-07T10:00:09;7.40;;;2.53;;
13607;SDS011;6875;50.852;5.672;2023-04-07T10:02:38;7.30;;;2.97;;
13607;SDS011;6875;50.852;5.672;2023-04-07T10:05:06;10.80;;;3.00;;
13607;SDS011;6875;50.852;5.672;2023-04-07T10:07:32;7.50;;;3.40;;
13607;SDS011;6875;50.852;5.672;2023-04-07T10:10:00;8.07;;;2.90;;
13607;SDS011;6875;50.852;5.672;2023-04-07T10:12:26;7.30;;;3.43;;
13607;SDS011;6875;50.852;5.672;2023-04-07T10:14:53;14.20;;;3.43;;
13607;SDS011;6875;50.852;5.672;2023-04-07T10:17:19;11.90;;;3.93;;
13607;SDS011;6875;50.852;5.672;2023-04-07T10:19:48;7.80;;;3.30;;
13607;SDS011;6875;50.852;5.672;2023-04-07T10:22:15;8.33;;;2.93;;
13607;SDS011;6875;50.852;5.672;2023-04-07T10:24:44;8.37;;;3.20;;
13607;SDS011;6875;50.852;5.672;2023-04-07T10:27:15;8.60;;;2.80;;
13607;SDS011;6875;50.852;5.672;2023-04-07T10:29:45;9.73;;;3.10;;
13607;SDS011;6875;50.852;5.672;2023-04-07T10:32:13;9.30;;;2.90;;
13607;SDS011;6875;50.852;5.672;2023-04-07T10:34:57;7.60;;;2.90;;
13607;SDS011;6875;50.852;5.672;2023-04-07T10:37:25;9.00;;;3.33;;
13607;SDS011;6875;50.852;5.672;2023-04-07T10:42:57;4.50;;;3.10;;
13607;SDS011;6875;50.852;5.672;2023-04-07T10:48:20;5.63;;;2.00;;
13607;SDS011;6875;50.852;5.672;2023-04-07T10:51:10;5.37;;;2.50;;
13607;SDS011;6875;50.852;5.672;2023-04-07T10:57:03;11.90;;;3.43;;
13607;SDS011;6875;50.852;5.672;2023-04-07T10:59:32;6.20;;;2.73;;
13607;SDS011;6875;50.852;5.672;2023-04-07T11:04:59;15.50;;;3.37;;
13607;SDS011;6875;50.852;5.672;2023-04-07T11:07:43;8.87;;;2.80;;
13607;SDS011;6875;50.852;5.672;2023-04-07T11:10:15;12.43;;;3.47;;
13607;SDS011;6875;50.852;5.672;2023-04-07T11:12:43;7.13;;;2.97;;
13607;SDS011;6875;50.852;5.672;2023-04-07T11:15:16;7.10;;;2.30;;
13607;SDS011;6875;50.852;5.672;2023-04-07T11:17:44;6.60;;;2.20;;
13607;SDS011;6875;50.852;5.672;2023-04-07T11:20:11;8.40;;;2.67;;
13607;SDS011;6875;50.852;5.672;2023-04-07T11:22:37;11.33;;;2.80;;
13607;SDS011;6875;50.852;5.672;2023-04-07T11:25:07;6.70;;;2.40;;
13607;SDS011;6875;50.852;5.672;2023-04-07T11:27:45;8.33;;;3.00;;
13607;SDS011;6875;50.852;5.672;2023-04-07T11:30:13;11.30;;;2.67;;
13607;SDS011;6875;50.852;5.672;2023-04-07T11:32:43;9.57;;;3.60;;
13607;SDS011;6875;50.852;5.672;2023-04-07T11:35:13;9.87;;;2.93;;
13607;SDS011;6875;50.852;5.672;2023-04-07T11:37:40;15.57;;;3.17;;
13607;SDS011;6875;50.852;5.672;2023-04-07T11:40:09;14.13;;;3.23;;
13607;SDS011;6875;50.852;5.672;2023-04-07T11:42:37;10.90;;;2.90;;
13607;SDS011;6875;50.852;5.672;2023-04-07T11:45:05;6.63;;;2.60;;
13607;SDS011;6875;50.852;5.672;2023-04-07T11:47:33;9.10;;;3.20;;
13607;SDS011;6875;50.852;5.672;2023-04-07T11:50:00;8.07;;;3.27;;
13607;SDS011;6875;50.852;5.672;2023-04-07T11:52:26;8.37;;;3.67;;
13607;SDS011;6875;50.852;5.672;2023-04-07T11:54:53;11.10;;;3.13;;
13607;SDS011;6875;50.852;5.672;2023-04-07T11:57:23;8.67;;;3.37;;
13607;SDS011;6875;50.852;5.672;2023-04-07T11:59:50;16.10;;;3.90;;
13607;SDS011;6875;50.852;5.672;2023-04-07T12:02:31;11.60;;;3.70;;
13607;SDS011;6875;50.852;5.672;2023-04-07T12:04:58;10.47;;;2.70;;
13607;SDS011;6875;50.852;5.672;2023-04-07T12:07:24;12.83;;;3.23;;
13607;SDS011;6875;50.852;5.672;2023-04-07T12:09:52;10.27;;;3.30;;
13607;SDS011;6875;50.852;5.672;2023-04-07T12:12:25;13.00;;;3.60;;
13607;SDS011;6875;50.852;5.672;2023-04-07T12:14:52;12.63;;;3.43;;
13607;SDS011;6875;50.852;5.672;2023-04-07T12:17:20;13.37;;;3.10;;
13607;SDS011;6875;50.852;5.672;2023-04-07T12:19:47;8.90;;;3.43;;
13607;SDS011;6875;50.852;5.672;2023-04-07T12:22:14;8.83;;;3.70;;
13607;SDS011;6875;50.852;5.672;2023-04-07T12:24:40;9.90;;;3.53;;
13607;SDS011;6875;50.852;5.672;2023-04-07T12:27:07;14.00;;;3.37;;
13607;SDS011;6875;50.852;5.672;2023-04-07T12:29:35;14.10;;;3.93;;
13607;SDS011;6875;50.852;5.672;2023-04-07T12:32:02;10.70;;;3.10;;
13607;SDS011;6875;50.852;5.672;2023-04-07T12:34:29;9.27;;;3.10;;
13607;SDS011;6875;50.852;5.672;2023-04-07T12:36:55;10.87;;;3.73;;
13607;SDS011;6875;50.852;5.672;2023-04-07T12:39:21;9.80;;;3.27;;
13607;SDS011;6875;50.852;5.672;2023-04-07T12:41:48;9.97;;;3.57;;
13607;SDS011;6875;50.852;5.672;2023-04-07T12:44:17;10.20;;;3.30;;
13607;SDS011;6875;50.852;5.672;2023-04-07T12:46:45;10.80;;;3.57;;
13607;SDS011;6875;50.852;5.672;2023-04-07T12:49:11;12.63;;;3.23;;
13607;SDS011;6875;50.852;5.672;2023-04-07T12:51:38;13.30;;;3.60;;
13607;SDS011;6875;50.852;5.672;2023-04-07T12:54:05;6.90;;;2.70;;
13607;SDS011;6875;50.852;5.672;2023-04-07T12:56:31;12.80;;;3.17;;
13607;SDS011;6875;50.852;5.672;2023-04-07T12:58:58;16.50;;;4.10;;
13607;SDS011;6875;50.852;5.672;2023-04-07T13:01:24;9.20;;;2.93;;
13607;SDS011;6875;50.852;5.672;2023-04-07T13:03:52;9.57;;;3.00;;
13607;SDS011;6875;50.852;5.672;2023-04-07T13:06:19;8.47;;;2.83;;
13607;SDS011;6875;50.852;5.672;2023-04-07T13:08:46;6.23;;;2.67;;
13607;SDS011;6875;50.852;5.672;2023-04-07T13:11:13;11.03;;;2.90;;
13607;SDS011;6875;50.852;5.672;2023-04-07T13:13:39;10.20;;;3.63;;
13607;SDS011;6875;50.852;5.672;2023-04-07T13:16:06;10.33;;;3.07;;
13607;SDS011;6875;50.852;5.672;2023-04-07T13:18:33;11.13;;;3.70;;
13607;SDS011;6875;50.852;5.672;2023-04-07T13:21:01;9.27;;;3.17;;
13607;SDS011;6875;50.852;5.672;2023-04-07T13:23:28;9.07;;;3.13;;
13607;SDS011;6875;50.852;5.672;2023-04-07T13:25:54;13.77;;;3.57;;
13607;SDS011;6875;50.852;5.672;2023-04-07T13:28:21;9.20;;;3.33;;
13607;SDS011;6875;50.852;5.672;2023-04-07T13:30:47;10.00;;;3.10;;
13607;SDS011;6875;50.852;5.672;2023-04-07T13:33:14;8.87;;;3.10;;
13607;SDS011;6875;50.852;5.672;2023-04-07T13:35:40;10.83;;;3.40;;
13607;SDS011;6875;50.852;5.672;2023-04-07T13:38:08;8.97;;;3.30;;
13607;SDS011;6875;50.852;5.672;2023-04-07T13:40:34;9.80;;;3.40;;
13607;SDS011;6875;50.852;5.672;2023-04-07T13:43:01;11.50;;;3.60;;
13607;SDS011;6875;50.852;5.672;2023-04-07T13:45:28;8.30;;;3.53;;
13607;SDS011;6875;50.852;5.672;2023-04-07T13:47:54;11.73;;;4.13;;
13607;SDS011;6875;50.852;5.672;2023-04-07T13:50:21;10.70;;;3.93;;
13607;SDS011;6875;50.852;5.672;2023-04-07T13:52:47;9.97;;;3.57;;
13607;SDS011;6875;50.852;5.672;2023-04-07T13:55:15;9.50;;;4.07;;
13607;SDS011;6875;50.852;5.672;2023-04-07T13:57:44;12.30;;;4.40;;
13607;SDS011;6875;50.852;5.672;2023-04-07T14:00:11;11.70;;;3.63;;
13607;SDS011;6875;50.852;5.672;2023-04-07T14:02:39;12.07;;;3.83;;
13607;SDS011;6875;50.852;5.672;2023-04-07T14:05:05;9.70;;;4.00;;
13607;SDS011;6875;50.852;5.672;2023-04-07T14:07:32;11.73;;;4.43;;
13607;SDS011;6875;50.852;5.672;2023-04-07T14:09:59;12.83;;;4.77;;
13607;SDS011;6875;50.852;5.672;2023-04-07T14:12:27;15.63;;;4.13;;
13607;SDS011;6875;50.852;5.672;2023-04-07T14:14:53;10.50;;;4.87;;
13607;SDS011;6875;50.852;5.672;2023-04-07T14:17:20;14.43;;;5.60;;
13607;SDS011;6875;50.852;5.672;2023-04-07T14:19:47;16.47;;;5.83;;
13607;SDS011;6875;50.852;5.672;2023-04-07T14:22:13;14.87;;;5.73;;
13607;SDS011;6875;50.852;5.672;2023-04-07T14:24:40;15.07;;;5.70;;
13607;SDS011;6875;50.852;5.672;2023-04-07T14:27:06;14.10;;;5.33;;
13607;SDS011;6875;50.852;5.672;2023-04-07T14:29:34;13.00;;;5.20;;
13607;SDS011;6875;50.852;5.672;2023-04-07T14:32:01;15.70;;;5.47;;
13607;SDS011;6875;50.852;5.672;2023-04-07T14:34:27;19.00;;;5.10;;
13607;SDS011;6875;50.852;5.672;2023-04-07T14:36:54;11.50;;;4.47;;
13607;SDS011;6875;50.852;5.672;2023-04-07T14:39:22;11.70;;;4.47;;
13607;SDS011;6875;50.852;5.672;2023-04-07T14:41:49;13.33;;;4.60;;
13607;SDS011;6875;50.852;5.672;2023-04-07T14:44:16;14.40;;;4.60;;
13607;SDS011;6875;50.852;5.672;2023-04-07T14:46:43;5.90;;;4.17;;
13607;SDS011;6875;50.852;5.672;2023-04-07T14:49:10;13.10;;;4.60;;
13607;SDS011;6875;50.852;5.672;2023-04-07T14:51:38;13.43;;;4.33;;
13607;SDS011;6875;50.852;5.672;2023-04-07T14:54:04;10.37;;;4.07;;
13607;SDS011;6875;50.852;5.672;2023-04-07T14:56:32;16.73;;;4.57;;
13607;SDS011;6875;50.852;5.672;2023-04-07T14:58:58;13.90;;;4.37;;
13607;SDS011;6875;50.852;5.672;2023-04-07T15:01:25;14.97;;;4.53;;
13607;SDS011;6875;50.852;5.672;2023-04-07T15:03:53;17.03;;;4.87;;
13607;SDS011;6875;50.852;5.672;2023-04-07T15:06:19;12.67;;;3.93;;
13607;SDS011;6875;50.852;5.672;2023-04-07T15:08:46;11.43;;;4.10;;
13607;SDS011;6875;50.852;5.672;2023-04-07T15:11:12;12.83;;;3.50;;